Time;durP1;ratioP1;P1;durP2;ratioP2;P2;SDS_P1;SDS_P2;PMS_P1;PMS_P2;Temp;Humidity;BMP_temperature;BMP_pressure;BME280_temperature;BME280_humidity;BME280_pressure;Samples;Min_cycle;Max_cycle;Signal;HPM_P1;HPM_P2
2023/03/18 07:01:14;;;;;;;17.08;15.27;;;;;;;-145.79;90.85;77546.84;5279378;28;20382;-70
2023/03/18 07:03:54;;;;;;;16.15;14.45;;;;;;;-145.79;90.97;77555.31;5279908;28;20032;-70
2023/03/18 07:06:26;;;;;;;16.30;13.63;;;;;;;-145.79;90.84;77546.84;5275327;28;20021;-70
2023/03/18 07:08:58;;;;;;;16.75;15.00;;;;;;;-145.79;90.70;77553.22;5267335;28;20021;-70
2023/03/18 07:11:29;;;;;;;18.42;16.38;;;;;;;-145.79;90.95;77542.59;5277302;28;20021;-69
2023/03/18 07:14:01;;;;;;;20.13;15.63;;;;;;;-145.79;90.68;77544.72;5279834;28;20111;-69
2023/03/18 07:16:32;;;;;;;18.38;16.48;;;;;;;-145.79;90.82;77553.22;5279929;28;20024;-68
2023/03/18 07:19:03;;;;;;;17.05;15.30;;;;;;;-145.79;90.83;77542.59;5278310;28;20036;-70
2023/03/18 07:21:35;;;;;;;17.50;14.43;;;;;;;-145.79;90.38;77555.31;5279437;28;20029;-70
2023/03/18 07:24:07;;;;;;;17.48;15.55;;;;;;;-145.79;90.55;77555.31;5268916;28;20090;-70
2023/03/18 07:26:39;;;;;;;18.23;15.07;;;;;;;-145.79;90.57;77553.22;5278223;28;20455;-69
2023/03/18 07:29:10;;;;;;;17.48;15.60;;;;;;;-145.79;90.20;77548.97;5279234;28;20472;-69
2023/03/18 07:31:42;;;;;;;19.92;16.13;;;;;;;-145.79;90.32;77551.09;5278915;28;20105;-70
2023/03/18 07:34:16;;;;;;;17.30;15.40;;;;;;;-145.79;89.77;77546.84;5257489;28;20041;-70
2023/03/18 07:36:48;;;;;;;17.63;15.73;;;;;;;-145.79;89.59;77546.84;5258169;28;20059;-69
2023/03/18 07:39:19;;;;;;;18.13;15.73;;;;;;;-145.79;89.23;77551.09;5257421;28;20481;-70
2023/03/18 07:41:51;;;;;;;16.38;14.68;;;;;;;-145.79;89.84;77546.84;5274336;28;20031;-70
2023/03/18 07:44:22;;;;;;;17.23;15.52;;;;;;;-145.79;89.08;77555.31;5278806;28;20053;-70
2023/03/18 07:46:54;;;;;;;16.50;14.75;;;;;;;-145.79;89.63;77551.09;5278436;28;20364;-70
2023/03/18 07:49:26;;;;;;;18.55;15.65;;;;;;;-145.79;88.92;77559.56;5279312;28;20362;-69
2023/03/18 07:51:57;;;;;;;16.05;14.38;;;;;;;-145.79;89.31;77559.56;5270452;28;20174;-69
2023/03/18 07:54:29;;;;;;;17.45;15.73;;;;;;;-145.79;88.99;77555.31;5256503;28;20033;-71
2023/03/18 07:57:00;;;;;;;16.77;14.98;;;;;;;-145.79;88.89;77557.44;5258890;28;20029;-68
2023/03/18 07:59:32;;;;;;;16.25;14.55;;;;;;;-145.79;88.33;77551.09;5257105;28;20041;-70
2023/03/18 08:02:05;;;;;;;15.10;13.55;;;;;;;-145.79;88.06;77542.59;5256368;28;20105;-70
2023/03/18 08:04:36;;;;;;;14.25;12.65;;;;;;;-145.79;87.19;77540.50;5270561;28;20427;-70
2023/03/18 08:07:07;;;;;;;13.65;12.35;;;;;;;-145.79;86.89;77529.88;5278276;28;20020;-70
2023/03/18 08:09:39;;;;;;;13.93;12.23;;;;;;;-145.79;87.03;77519.28;5261381;28;20449;-70
2023/03/18 08:12:10;;;;;;;13.25;11.50;;;;;;;-145.79;86.44;77515.06;5246134;28;20028;-71
2023/03/18 08:14:42;;;;;;;11.48;10.27;;;;;;;-145.79;85.32;77519.28;5243136;28;20026;-70
2023/03/18 08:17:14;;;;;;;11.50;10.18;;;;;;;-145.79;85.48;77508.69;5243594;28;20052;-69
2023/03/18 08:19:45;;;;;;;11.73;10.52;;;;;;;-145.79;85.16;77500.22;5251556;28;20029;-69
2023/03/18 08:22:17;;;;;;;12.50;11.20;;;;;;;-145.79;85.38;77489.63;5248191;28;20032;-69
2023/03/18 08:24:49;;;;;;;11.98;10.75;;;;;;;-145.79;84.37;77474.78;5243502;28;20025;-68
2023/03/18 08:27:20;;;;;;;10.85;9.57;;;;;;;-145.79;83.59;77466.31;5257424;28;20032;-69
2023/03/18 08:29:51;;;;;;;11.90;10.73;;;;;;;-145.79;84.18;77464.19;5241727;28;20108;-69
2023/03/18 08:32:23;;;;;;;13.23;10.90;;;;;;;-145.79;83.96;77462.06;5254564;28;20025;-69
2023/03/18 08:34:55;;;;;;;11.50;10.02;;;;;;;-145.79;83.25;77449.34;5264045;28;20496;-69
2023/03/18 08:37:27;;;;;;;10.82;9.70;;;;;;;-145.79;83.52;77449.34;5262774;28;20036;-70
2023/03/18 08:39:59;;;;;;;11.00;9.85;;;;;;;-145.79;83.06;77447.22;5263995;28;20029;-70
2023/03/18 08:42:30;;;;;;;10.90;9.85;;;;;;;-145.79;82.98;77440.88;5263198;28;20025;-70
2023/03/18 08:45:03;;;;;;;11.93;10.73;;;;;;;-145.79;82.13;77440.88;5263773;28;20530;-69
2023/03/18 08:47:34;;;;;;;10.85;9.65;;;;;;;-145.79;82.96;77430.25;5244595;28;20033;-70
2023/03/18 08:50:07;;;;;;;11.90;9.80;;;;;;;-145.79;82.31;77428.16;5242507;28;20072;-69
2023/03/18 08:52:40;;;;;;;17.02;11.05;;;;;;;-145.79;82.27;77423.91;5253773;28;20033;-71
2023/03/18 08:55:11;;;;;;;12.70;10.45;;;;;;;-145.79;82.03;77415.44;5263390;28;20013;-70
2023/03/18 08:57:42;;;;;;;15.75;14.07;;;;;;;-145.79;81.55;77404.84;5263570;28;20059;-70
2023/03/18 09:00:14;;;;;;;15.88;14.23;;;;;;;-145.79;80.41;77398.47;5248730;28;20056;-69
2023/03/18 09:02:46;;;;;;;10.00;8.73;;;;;;;-145.79;79.52;77394.22;5249517;28;20075;-69
2023/03/18 09:05:19;;;;;;;9.52;8.52;;;;;;;-145.79;79.34;77398.47;5259230;28;20428;-69
2023/03/18 09:07:54;;;;;;;9.90;8.07;;;;;;;-145.79;79.27;77381.50;5254314;28;20033;-69
2023/03/18 09:10:29;;;;;;;9.27;8.40;;;;;;;-145.79;77.84;77381.50;5258479;28;20065;-66
2023/03/18 09:13:00;;;;;;;10.75;8.82;;;;;;;-145.79;78.80;77385.75;5243714;28;20487;-66
2023/03/18 09:15:31;;;;;;;9.70;8.70;;;;;;;-145.79;79.09;77366.69;5243351;28;20112;-67
2023/03/18 09:18:04;;;;;;;27.20;23.42;;;;;;;-145.79;77.81;77366.69;5244389;28;20021;-67
2023/03/18 09:20:36;;;;;;;8.98;8.02;;;;;;;-145.79;77.42;77356.06;5263250;28;20021;-69
2023/03/18 09:23:08;;;;;;;11.60;8.77;;;;;;;-145.79;77.90;77364.56;5252055;28;20083;-67
2023/03/18 09:25:42;;;;;;;9.27;8.23;;;;;;;-145.79;77.66;77360.31;5245590;28;20037;-69
2023/03/18 09:28:14;;;;;;;17.63;15.88;;;;;;;-145.79;77.95;77358.19;5242748;28;20049;-69
2023/03/18 09:30:47;;;;;;;43.20;38.70;;;;;;;-145.79;77.94;77339.13;5241856;28;20049;-68
2023/03/18 09:33:19;;;;;;;10.52;9.40;;;;;;;-145.79;76.99;77339.13;5243402;28;20038;-68
2023/03/18 09:35:53;;;;;;;10.25;7.47;;;;;;;-145.79;76.96;77334.88;5250896;28;20029;-67
2023/03/18 09:38:24;;;;;;;7.93;7.00;;;;;;;-145.79;76.35;77326.41;5262427;28;20039;-68
2023/03/18 09:41:25;;;;;;;10.35;6.97;;;;;;;-145.79;76.43;77303.09;5249429;28;20060;-68
2023/03/18 09:44:11;;;;;;;8.27;6.63;;;;;;;-145.79;75.56;77300.97;5240691;28;20381;-67
2023/03/18 09:46:57;;;;;;;8.95;6.95;;;;;;;-145.79;75.38;77294.59;5251694;28;20055;-68
2023/03/18 09:49:58;;;;;;;8.73;7.47;;;;;;;-145.79;75.60;77292.50;5262630;28;20091;-68
2023/03/18 09:52:59;;;;;;;9.60;6.45;;;;;;;-145.79;75.40;77279.78;5261178;28;20032;-67
2023/03/18 09:55:49;;;;;;;8.10;6.50;;;;;;;-145.79;74.51;77262.81;5260662;28;20060;-67
2023/03/18 09:58:59;;;;;;;10.70;6.07;;;;;;;-145.79;74.33;77247.97;5240765;28;20087;-68
2023/03/18 10:01:35;;;;;;;6.15;5.53;;;;;;;-145.79;72.73;77237.38;5249980;28;20049;-68
2023/03/18 10:04:19;;;;;;;8.73;5.90;;;;;;;-145.79;72.48;77243.75;5260417;28;20036;-68
2023/03/18 10:07:00;;;;;;;9.90;6.43;;;;;;;-145.79;71.82;77250.09;5258835;28;20135;-68
2023/03/18 10:09:40;;;;;;;7.20;5.45;;;;;;;-145.79;72.26;77245.84;5259244;28;20033;-69
2023/03/18 10:12:35;;;;;;;6.38;5.22;;;;;;;-145.79;71.91;77224.66;5245722;28;20037;-68
2023/03/18 10:15:16;;;;;;;36.50;32.75;;;;;;;-145.79;69.31;77220.44;5242740;28;20465;-67
2023/03/18 10:18:24;;;;;;;9.43;6.68;;;;;;;-145.79;69.63;77207.72;5250387;28;20023;-68
2023/03/18 10:21:07;;;;;;;6.38;5.03;;;;;;;-145.79;69.14;77199.22;5254238;28;20122;-69
2023/03/18 10:23:53;;;;;;;6.22;4.40;;;;;;;-145.79;68.88;77184.41;5241395;28;20112;-67
2023/03/18 10:26:54;;;;;;;;;;;;;;;-145.79;68.58;77173.78;5258830;28;20534;-70
2023/03/18 10:30:04;;;;;;;3.75;3.22;;;;;;;-145.79;67.47;77178.03;5260334;28;19974;-69
2023/03/18 10:33:05;;;;;;;5.82;4.05;;;;;;;-145.79;66.96;77173.78;5240326;28;20048;-69
2023/03/18 10:35:50;;;;;;;4.20;3.22;;;;;;;-145.79;66.67;77165.31;5235312;28;20042;-70
2023/03/18 10:38:21;;;;;;;7.20;3.40;;;;;;;-145.79;67.15;77161.06;5241425;28;20373;-69
2023/03/18 10:40:54;;;;;;;6.15;3.50;;;;;;;-145.79;66.16;77156.84;5261173;28;20090;-68
2023/03/18 10:43:29;;;;;;;7.18;3.60;;;;;;;-145.79;66.12;77146.25;5262180;28;20429;-70
2023/03/18 10:46:03;;;;;;;5.30;2.87;;;;;;;-145.79;63.62;77150.47;5244089;28;20121;-71
2023/03/18 10:48:43;;;;;;;7.95;5.40;;;;;;;-145.79;64.76;77154.72;5252752;28;20052;-70
2023/03/18 10:51:18;;;;;;;5.75;3.50;;;;;;;-145.79;64.00;77158.97;5260684;28;20033;-71
2023/03/18 10:54:01;;;;;;;5.60;3.45;;;;;;;-145.79;64.01;77146.25;5261208;28;20436;-71
2023/03/18 10:56:34;;;;;;;7.60;3.65;;;;;;;-145.79;65.09;77156.84;5261000;28;20188;-70
2023/03/18 10:59:17;;;;;;;9.20;3.90;;;;;;;-145.79;64.76;77152.59;5255397;28;20037;-71
2023/03/18 11:02:31;;;;;;;8.80;3.95;;;;;;;-145.79;65.03;77152.59;5250409;28;20016;-71
2023/03/18 11:05:20;;;;;;;5.47;3.45;;;;;;;-145.79;65.08;77152.59;5251768;28;20572;-70
2023/03/18 11:08:07;;;;;;;4.75;2.88;;;;;;;-145.79;63.71;77152.59;5238027;28;20052;-71
2023/03/18 11:10:45;;;;;;;5.13;3.10;;;;;;;-145.79;63.57;77163.19;5237708;28;20034;-71
2023/03/18 11:13:19;;;;;;;3.92;3.03;;;;;;;-145.79;64.17;77161.06;5238621;28;20021;-71
2023/03/18 11:15:53;;;;;;;7.28;3.60;;;;;;;-145.79;64.30;77158.97;5239978;28;20029;-71
2023/03/18 11:18:26;;;;;;;7.45;3.28;;;;;;;-145.79;63.61;77161.06;5255095;28;20057;-71
2023/03/18 11:21:00;;;;;;;11.23;5.75;;;;;;;-145.79;63.84;77161.06;5259964;28;20067;-71
2023/03/18 11:24:06;;;;;;;5.13;3.13;;;;;;;-145.79;62.89;77169.56;5240163;28;20049;-72
2023/03/18 11:26:48;;;;;;;8.02;4.97;;;;;;;-145.79;63.14;77175.91;5239973;28;20105;-71
2023/03/18 11:29:24;;;;;;;5.53;2.42;;;;;;;-145.79;62.84;77190.75;5240049;28;20033;-72
2023/03/18 11:31:57;;;;;;;6.25;2.78;;;;;;;-145.79;62.61;77195.00;5253554;28;20113;-71
2023/03/18 11:34:31;;;;;;;9.45;4.20;;;;;;;-145.79;62.43;77190.75;5243059;28;20021;-70
2023/03/18 11:37:07;;;;;;;6.15;2.90;;;;;;;-145.79;63.52;77195.00;5245397;28;20021;-70
2023/03/18 11:39:40;;;;;;;5.05;3.90;;;;;;;-145.79;63.91;77199.22;5245345;28;20477;-70
2023/03/18 11:42:21;;;;;;;5.75;3.78;;;;;;;-145.79;64.63;77197.09;5256879;28;20029;-70
2023/03/18 11:45:00;;;;;;;4.68;3.97;;;;;;;-145.79;65.45;77201.34;5260780;28;20017;-71
2023/03/18 11:47:36;;;;;;;7.32;4.18;;;;;;;-145.79;65.77;77203.47;5263147;28;20383;-70
2023/03/18 11:50:15;;;;;;;;;;;;;;;-145.79;66.44;77197.09;5264850;28;20033;-69
2023/03/18 11:52:59;;;;;;;6.50;3.80;;;;;;;-145.79;67.95;77205.59;5246135;28;19917;-70
2023/03/18 11:55:44;;;;;;;6.72;3.45;;;;;;;-145.79;67.58;77205.59;5249085;28;20117;-72
2023/03/18 11:58:45;;;;;;;8.73;4.43;;;;;;;-145.79;67.93;77205.59;5264238;28;20021;-70
2023/03/18 12:01:44;;;;;;;7.60;3.50;;;;;;;-145.79;67.86;77205.59;5243537;28;20065;-70
2023/03/18 12:04:30;;;;;;;5.53;2.53;;;;;;;-145.79;66.90;77207.72;5243590;28;20039;-70
2023/03/18 12:07:29;;;;;;;5.70;3.08;;;;;;;-145.79;65.70;77209.81;5242469;28;20423;-70
2023/03/18 12:10:18;;;;;;;3.63;2.95;;;;;;;-145.79;66.04;77220.44;5243390;28;20026;-70
2023/03/18 12:13:31;;;;;;;4.75;2.88;;;;;;;-145.79;66.31;77211.94;5251663;28;20029;-70
2023/03/18 12:16:13;;;;;;;5.75;3.65;;;;;;;-145.79;66.32;77226.78;5264605;28;20091;-71
2023/03/18 12:18:51;;;;;;;5.68;3.08;;;;;;;-145.79;67.19;77216.19;5261795;28;20108;-70
2023/03/18 12:21:47;;;;;;;4.95;3.15;;;;;;;-145.79;67.80;77220.44;5262154;28;20033;-70
2023/03/18 12:24:30;;;;;;;5.35;3.90;;;;;;;-145.79;68.60;77211.94;5262347;28;20036;-70
2023/03/18 12:27:07;;;;;;;4.45;3.35;;;;;;;-145.79;68.12;77209.81;5264261;28;20041;-71
2023/03/18 12:30:13;;;;;;;5.25;3.33;;;;;;;-145.79;66.98;77214.06;5260758;28;20483;-70
2023/03/18 12:33:04;;;;;;;4.50;3.50;;;;;;;-145.79;67.39;77209.81;5254435;28;20033;-70
2023/03/18 12:35:54;;;;;;;4.63;3.65;;;;;;;-145.79;67.78;77207.72;5255611;28;20102;-71
2023/03/18 12:39:25;;;;;;;3.30;2.97;;;;;;;-145.79;67.34;77211.94;5260424;28;20025;-70
2023/03/18 12:42:25;;;;;;;5.32;3.40;;;;;;;-145.79;67.40;77222.53;5256742;28;20036;-70
2023/03/18 12:45:12;;;;;;;4.40;3.67;;;;;;;-145.79;67.45;77216.19;5263544;28;20116;-70
2023/03/18 12:47:49;;;;;;;5.10;2.70;;;;;;;-145.79;66.98;77216.19;5263275;28;20104;-70
2023/03/18 12:50:27;;;;;;;3.08;2.55;;;;;;;-145.79;67.17;77220.44;5260732;28;20021;-71
2023/03/18 12:53:03;;;;;;;4.50;2.90;;;;;;;-145.79;66.38;77228.91;5242915;28;20037;-71
2023/03/18 12:55:38;;;;;;;2.97;2.28;;;;;;;-145.79;65.46;77218.31;5242157;28;20021;-71
2023/03/18 12:58:16;;;;;;;3.28;2.40;;;;;;;-145.79;65.59;77211.94;5242624;28;20098;-71
2023/03/18 13:00:56;;;;;;;3.22;2.20;;;;;;;-145.79;65.76;77203.47;5242105;28;20049;-71
2023/03/18 13:03:30;;;;;;;2.95;2.65;;;;;;;-145.79;65.46;77205.59;5250148;28;20029;-70
2023/03/18 13:06:22;;;;;;;3.75;3.03;;;;;;;-145.79;66.44;77201.34;5246977;28;20117;-71
2023/03/18 13:09:01;;;;;;;5.97;3.42;;;;;;;-145.79;67.03;77201.34;5248962;28;20021;-71
2023/03/18 13:11:57;;;;;;;4.32;3.50;;;;;;;-145.79;68.88;77207.72;5262383;28;20473;-70
2023/03/18 13:14:31;;;;;;;4.68;3.42;;;;;;;-145.79;70.08;77197.09;5263077;28;20033;-70
2023/03/18 13:17:03;;;;;;;4.53;3.60;;;;;;;-145.79;70.68;77188.63;5252338;28;20025;-70
2023/03/18 13:19:40;;;;;;;26.27;23.38;;;;;;;-145.79;71.68;77182.28;5259044;28;20043;-71
2023/03/18 13:22:45;;;;;;;18.52;16.58;;;;;;;-145.79;71.11;77184.41;5252399;28;20086;-70
2023/03/18 13:25:27;;;;;;;5.55;4.55;;;;;;;-145.79;70.67;77192.88;5242098;28;20109;-69
2023/03/18 13:28:08;;;;;;;5.25;4.15;;;;;;;-145.79;71.22;77178.03;5241586;28;20045;-70
2023/03/18 13:30:54;;;;;;;6.47;3.97;;;;;;;-145.79;71.58;77178.03;5257033;28;20029;-70
2023/03/18 13:33:50;;;;;;;6.03;3.90;;;;;;;-145.79;71.56;77173.78;5260416;28;20079;-70
2023/03/18 13:36:24;;;;;;;7.07;4.18;;;;;;;-145.79;71.10;77180.16;5262626;28;20115;-70
2023/03/18 13:39:25;;;;;;;6.13;4.57;;;;;;;-145.79;70.43;77182.28;5244472;28;20037;-70
2023/03/18 13:42:17;;;;;;;7.63;6.13;;;;;;;-145.79;70.63;77184.41;5257696;28;20052;-71
2023/03/18 13:45:14;;;;;;;7.07;5.03;;;;;;;-145.79;71.46;77190.75;5255854;28;20033;-70
2023/03/18 13:47:55;;;;;;;11.27;9.40;;;;;;;-145.79;71.27;77184.41;5241008;28;20035;-70
2023/03/18 13:50:36;;;;;;;6.90;5.22;;;;;;;-145.79;71.22;77199.22;5241336;28;20022;-71
2023/03/18 13:53:29;;;;;;;67.72;58.53;;;;;;;-145.79;71.26;77186.50;5254730;28;20024;-70
2023/03/18 13:56:04;;;;;;;5.80;5.20;;;;;;;-145.79;70.71;77184.41;5258224;28;20044;-70
2023/03/18 13:58:44;;;;;;;5.53;4.65;;;;;;;-145.79;69.85;77173.78;5261904;28;20032;-71
2023/03/18 14:01:28;;;;;;;7.03;6.03;;;;;;;-145.79;68.20;77156.84;5261026;28;20041;-69
2023/03/18 14:04:21;;;;;;;4.57;3.05;;;;;;;-145.79;65.38;77122.94;5255599;28;20029;-70
2023/03/18 14:07:12;;;;;;;4.47;2.50;;;;;;;-145.79;64.45;77078.41;5263491;28;20112;-70
2023/03/18 14:10:05;;;;;;;4.47;2.90;;;;;;;-145.79;63.28;77050.88;5244820;28;20091;-70
2023/03/18 14:12:46;;;;;;;3.85;2.97;;;;;;;-145.79;62.24;77029.66;5254632;28;20035;-70
2023/03/18 14:15:41;;;;;;;5.22;3.05;;;;;;;-145.79;61.89;77012.72;5261141;28;20029;-71
2023/03/18 14:18:18;;;;;;;4.85;2.80;;;;;;;-145.79;61.10;76983.03;5251988;28;20026;-70
2023/03/18 14:20:57;;;;;;;3.58;2.28;;;;;;;-145.79;60.27;76995.75;5240035;28;20044;-69
2023/03/18 14:23:42;;;;;;;2.80;2.00;;;;;;;-145.79;60.02;77008.47;5240999;28;20022;-70
2023/03/18 14:26:20;;;;;;;6.47;3.88;;;;;;;-145.79;59.52;77016.94;5257545;28;20056;-70
2023/03/18 14:29:15;;;;;;;3.45;2.33;;;;;;;-145.79;59.69;77029.66;5256534;28;20100;-70
2023/03/18 14:31:58;;;;;;;3.35;2.58;;;;;;;-145.79;59.95;77008.47;5241221;28;20044;-70
2023/03/18 14:34:34;;;;;;;3.05;2.22;;;;;;;-145.79;59.06;76991.53;5243222;28;20035;-69
2023/03/18 14:37:18;;;;;;;3.25;2.30;;;;;;;-145.79;59.10;76963.97;5261091;28;20079;-68
2023/03/18 14:39:52;;;;;;;3.40;2.10;;;;;;;-145.79;58.29;76961.84;5261625;28;20108;-71
2023/03/18 14:42:57;;;;;;;3.05;2.30;;;;;;;-145.79;58.49;76938.53;5260890;28;20029;-70
2023/03/18 14:45:40;;;;;;;4.72;3.13;;;;;;;-145.79;57.69;76934.28;5241284;28;20037;-71
2023/03/18 14:48:18;;;;;;;5.45;2.90;;;;;;;-145.79;57.64;76915.22;5238925;28;20029;-69
2023/03/18 14:50:55;;;;;;;3.22;2.63;;;;;;;-145.79;57.24;76902.50;5246489;28;20044;-69
2023/03/18 14:53:29;;;;;;;3.88;2.80;;;;;;;-145.79;56.76;76887.66;5246604;28;20487;-70
2023/03/18 14:56:05;;;;;;;5.10;3.08;;;;;;;-145.79;57.31;76872.84;5248282;28;20028;-70
2023/03/18 14:58:36;;;;;;;7.63;2.90;;;;;;;-145.79;56.54;76855.88;5257656;28;20040;-70
2023/03/18 15:01:11;;;;;;;9.70;8.25;;;;;;;-145.79;56.00;76847.41;5260297;28;20045;-70
2023/03/18 15:03:45;;;;;;;6.53;4.88;;;;;;;-145.79;55.78;76832.56;5245080;28;20116;-70
2023/03/18 15:06:20;;;;;;;3.13;2.30;;;;;;;-145.79;54.87;76847.41;5241416;28;20022;-70
2023/03/18 15:08:59;;;;;;;4.60;2.03;;;;;;;-145.79;54.38;76843.16;5247684;28;20484;-69
2023/03/18 15:11:39;;;;;;;5.05;2.80;;;;;;;-145.79;53.85;76855.88;5253375;28;20464;-71
2023/03/18 15:14:31;;;;;;;4.03;2.60;;;;;;;-145.79;54.90;76883.44;5253018;28;20036;-71
2023/03/18 15:17:11;;;;;;;3.75;2.50;;;;;;;-145.79;54.68;76906.75;5260588;28;20064;-71
2023/03/18 15:19:43;;;;;;;3.92;2.30;;;;;;;-145.79;55.24;76894.03;5260574;28;20036;-71
2023/03/18 15:22:24;;;;;;;5.47;4.35;;;;;;;-145.79;54.68;76864.34;5261523;28;20154;-70
2023/03/18 15:25:02;;;;;;;3.13;2.30;;;;;;;-145.79;53.59;76834.69;5252545;28;20033;-71
2023/03/18 15:27:34;;;;;;;3.30;2.13;;;;;;;-145.79;52.97;76836.81;5244846;28;20018;-70
2023/03/18 15:30:21;;;;;;;2.53;2.13;;;;;;;-145.79;52.26;76813.50;5262881;28;20111;-69
2023/03/18 15:33:15;;;;;;;2.10;1.58;;;;;;;-145.79;52.01;76802.91;5263474;28;20495;-70
2023/03/18 15:35:53;;;;;;;2.95;1.77;;;;;;;-145.79;51.16;76805.00;5265652;28;20465;-69
2023/03/18 15:38:27;;;;;;;6.10;4.95;;;;;;;-145.79;48.66;76819.84;5264107;28;20021;-70
2023/03/18 15:41:12;;;;;;;2.22;1.50;;;;;;;-145.79;49.08;76792.31;5265158;28;20044;-70
2023/03/18 15:43:46;;;;;;;3.10;1.42;;;;;;;-145.79;47.71;76792.31;5258996;28;20108;-70
2023/03/18 15:46:26;;;;;;;7.10;2.47;;;;;;;-145.79;47.70;76779.59;5249414;28;20481;-68
2023/03/18 15:49:04;;;;;;;8.65;7.45;;;;;;;-145.79;48.13;76783.81;5244048;28;20029;-69
2023/03/18 15:51:43;;;;;;;10.65;8.82;;;;;;;-145.79;48.56;76781.69;5243380;28;20026;-70
2023/03/18 15:54:26;;;;;;;2.95;1.83;;;;;;;-145.79;49.48;76779.59;5252013;28;20033;-69
2023/03/18 15:57:09;;;;;;;6.32;5.57;;;;;;;-145.79;49.46;76777.47;5244492;28;20030;-70
2023/03/18 15:59:43;;;;;;;6.38;3.75;;;;;;;-145.79;48.84;76792.31;5242909;28;20550;-70
2023/03/18 16:02:16;;;;;;;4.18;3.60;;;;;;;-145.79;47.83;76796.53;5243216;28;20040;-72
2023/03/18 16:04:47;;;;;;;4.95;2.50;;;;;;;-145.79;47.17;76805.00;5243996;28;20021;-72
2023/03/18 16:07:26;;;;;;;13.68;10.93;;;;;;;-145.79;47.32;76811.38;5251929;28;20025;-74
2023/03/18 16:09:58;;;;;;;6.82;3.75;;;;;;;-145.79;47.88;76821.97;5263548;28;20024;-73
2023/03/18 16:12:32;;;;;;;5.18;3.10;;;;;;;-145.79;48.16;76828.31;5242941;28;20515;-74
2023/03/18 16:15:06;;;;;;;4.78;2.25;;;;;;;-145.79;48.24;76815.63;5242858;28;20473;-74
2023/03/18 16:17:40;;;;;;;3.20;1.73;;;;;;;-145.79;48.19;76830.44;5243841;28;20045;-73
2023/03/18 16:20:17;;;;;;;3.15;1.83;;;;;;;-145.79;48.13;76834.69;5242725;28;20041;-74
2023/03/18 16:22:52;;;;;;;2.42;1.70;;;;;;;-145.79;48.54;76841.03;5244967;28;20025;-76
2023/03/18 16:25:25;;;;;;;2.13;1.30;;;;;;;-145.79;49.02;76834.69;5253955;28;20091;-74
2023/03/18 16:27:58;;;;;;;2.95;1.92;;;;;;;-145.79;48.86;76841.03;5262996;28;20025;-71
2023/03/18 16:30:32;;;;;;;5.05;2.35;;;;;;;-145.79;49.07;76830.44;5263862;28;20024;-72
